Aranspass, Texas
Current Conditions -  °F | °C
As of 6:35 AM on Sunday 21 Dec 2014 (Local Time) from KTFP Reporting Station
Overcast Overcast  
Wind Chill: 12°   Ceiling: 7000
Heat Index: 12°   Visibility: 10mi
Dew Point: 11°   Wind: 3mph
Humidity: 94%   Direction: 50°NE
Pressure: 30.08"   Gusts: NA
Location:  27.9399°N, 97.1805°W
Report Text: KTFP 211235Z AUTO 05003KT 10SM SCT012 OVC070 12/11 A3008 RMK AO2 T01200110
Loading
Personal Weather Stations






























Interactive Weather Map New forecast layout! Learn more

10-Day Weather Forecast

Advertisements
Track Severe Weather on mobile